createdAt,value
2017-09-10T00:01:53.208Z,73.56
2017-09-10T00:04:22.480Z,74.22
2017-09-10T00:06:51.757Z,74.10
2017-09-10T00:09:21.001Z,74.20
2017-09-10T00:11:50.454Z,74.55
2017-09-10T00:14:19.915Z,74.54
2017-09-10T00:16:49.386Z,74.44
2017-09-10T00:19:18.646Z,74.80
2017-09-10T00:21:48.113Z,74.93
2017-09-10T00:24:17.595Z,75.27
2017-09-10T00:26:47.047Z,74.46
2017-09-10T00:29:16.504Z,74.02
2017-09-10T00:31:45.968Z,73.87
2017-09-10T00:34:15.428Z,73.38
2017-09-10T00:36:44.896Z,73.39
2017-09-10T00:39:14.348Z,73.84
2017-09-10T00:41:43.822Z,73.52
2017-09-10T00:44:13.256Z,73.20
2017-09-10T00:46:42.708Z,73.90
2017-09-10T00:49:12.189Z,73.81
2017-09-10T00:51:41.630Z,73.93
2017-09-10T00:54:10.914Z,73.69
2017-09-10T00:56:40.362Z,74.40
2017-09-10T00:59:09.825Z,74.10
2017-09-10T01:01:39.265Z,74.37
2017-09-10T01:04:08.389Z,74.56
2017-09-10T01:06:37.830Z,74.38
2017-09-10T01:09:07.268Z,74.39
2017-09-10T01:11:36.576Z,74.50
2017-09-10T01:14:06.020Z,74.96
2017-09-10T01:16:35.449Z,74.69
2017-09-10T01:19:04.547Z,74.57
2017-09-10T01:21:33.643Z,74.30
2017-09-10T01:24:02.566Z,74.57
2017-09-10T01:26:32.142Z,74.33
2017-09-10T01:29:01.664Z,74.48
2017-09-10T01:31:31.099Z,74.47
2017-09-10T01:34:00.539Z,74.53
2017-09-10T01:36:29.995Z,74.68
2017-09-10T01:38:59.408Z,74.90
2017-09-10T01:41:28.975Z,75.07
2017-09-10T01:43:58.421Z,75.41
2017-09-10T01:46:27.881Z,75.26
2017-09-10T01:48:57.352Z,74.63
2017-09-10T01:51:26.792Z,74.52
2017-09-10T01:53:56.352Z,75.21
2017-09-10T01:56:25.839Z,75.75
2017-09-10T01:58:55.261Z,75.79
2017-09-10T02:01:24.735Z,75.50
2017-09-10T02:03:54.169Z,75.79
2017-09-10T02:06:23.448Z,75.73
2017-09-10T02:08:52.868Z,76.10
2017-09-10T02:11:22.354Z,75.70
2017-09-10T02:13:51.780Z,76.22
2017-09-10T02:16:21.236Z,76.24
2017-09-10T02:18:50.690Z,76.15
2017-09-10T02:21:20.150Z,76.44
2017-09-10T02:23:49.585Z,76.77
2017-09-10T02:26:19.037Z,76.37
2017-09-10T02:28:48.460Z,76.80
2017-09-10T02:31:17.921Z,77.28
2017-09-10T02:33:47.191Z,77.65
2017-09-10T02:36:16.640Z,77.63
2017-09-10T02:38:46.105Z,77.58
2017-09-10T02:41:15.564Z,77.44
2017-09-10T02:43:45.011Z,77.37
2017-09-10T02:46:14.449Z,77.46
2017-09-10T02:48:43.902Z,77.33
2017-09-10T02:51:13.442Z,77.61
2017-09-10T02:53:42.889Z,77.94
2017-09-10T02:56:12.338Z,77.99
2017-09-10T02:58:41.792Z,78.21
2017-09-10T03:01:11.227Z,78.32
2017-09-10T03:03:40.671Z,78.21
2017-09-10T03:06:10.104Z,78.32
2017-09-10T03:08:39.544Z,78.40
2017-09-10T03:11:08.996Z,78.12
2017-09-10T03:13:38.454Z,78.67
2017-09-10T03:16:07.947Z,78.70
2017-09-10T03:18:37.419Z,78.83
2017-09-10T03:21:06.885Z,79.34
2017-09-10T03:23:36.356Z,79.62
2017-09-10T03:26:05.823Z,80.00
2017-09-10T03:28:35.068Z,80.02
2017-09-10T03:31:04.573Z,80.14
2017-09-10T03:33:34.021Z,80.19
2017-09-10T03:36:03.470Z,79.97
2017-09-10T03:38:32.904Z,79.78
2017-09-10T03:41:02.414Z,79.52
2017-09-10T03:43:31.845Z,79.41
2017-09-10T03:46:01.301Z,79.73
2017-09-10T03:48:30.850Z,80.25
2017-09-10T03:51:00.308Z,80.94
2017-09-10T03:53:29.749Z,81.24
2017-09-10T03:55:59.200Z,81.49
2017-09-10T03:58:28.644Z,82.16
2017-09-10T04:00:58.087Z,82.39
2017-09-10T04:03:27.525Z,82.49
2017-09-10T04:05:57.042Z,82.39
2017-09-10T04:08:26.476Z,82.36
2017-09-10T04:10:55.934Z,82.53
2017-09-10T04:13:25.381Z,82.77
2017-09-10T04:15:54.817Z,82.61
2017-09-10T04:18:24.277Z,82.58
2017-09-10T04:20:53.529Z,82.47
2017-09-10T04:23:23.006Z,82.27
2017-09-10T04:25:52.464Z,82.27
2017-09-10T04:28:21.900Z,81.96
2017-09-10T04:30:51.005Z,82.06
2017-09-10T04:33:20.299Z,82.13
2017-09-10T04:35:49.734Z,82.44
2017-09-10T04:38:19.285Z,82.71
2017-09-10T04:40:48.737Z,82.97
2017-09-10T04:43:18.181Z,83.35
2017-09-10T04:45:47.705Z,83.47
2017-09-10T04:48:17.165Z,83.66
2017-09-10T04:50:46.604Z,83.85
2017-09-10T04:53:16.052Z,83.93
2017-09-10T04:55:45.310Z,84.22
2017-09-10T04:58:14.749Z,84.70
2017-09-10T05:00:44.194Z,84.75
2017-09-10T05:03:13.314Z,84.79
2017-09-10T05:05:42.758Z,84.75
2017-09-10T05:08:12.204Z,84.67
2017-09-10T05:10:41.719Z,84.92
2017-09-10T05:13:10.973Z,84.71
2017-09-10T05:15:40.427Z,84.36
2017-09-10T05:18:09.880Z,83.94
2017-09-10T05:20:39.332Z,84.90
2017-09-10T05:23:08.765Z,84.72
2017-09-10T05:25:38.376Z,84.88
2017-09-10T05:28:07.808Z,84.30
2017-09-10T05:30:36.944Z,84.03
2017-09-10T05:33:06.592Z,83.89
2017-09-10T05:35:36.082Z,83.89
2017-09-10T05:38:05.564Z,84.16
2017-09-10T05:40:34.997Z,84.76
2017-09-10T05:43:05.388Z,85.10
2017-09-10T05:45:34.881Z,84.97
2017-09-10T05:48:04.357Z,85.00
2017-09-10T05:50:33.781Z,84.81
2017-09-10T05:53:03.227Z,84.34
2017-09-10T05:55:32.700Z,84.01
2017-09-10T05:58:02.152Z,83.93
2017-09-10T06:00:31.667Z,83.89
2017-09-10T06:03:01.144Z,83.91
2017-09-10T06:05:30.413Z,83.93
2017-09-10T06:07:59.677Z,83.47
2017-09-10T06:10:29.156Z,82.76
2017-09-10T06:12:58.629Z,82.61
2017-09-10T06:15:28.076Z,82.49
2017-09-10T06:17:57.534Z,82.86
2017-09-10T06:20:26.994Z,82.66
2017-09-10T06:22:56.459Z,82.27
2017-09-10T06:25:25.897Z,82.20
2017-09-10T06:27:55.336Z,81.89
2017-09-10T06:30:24.785Z,81.68
2017-09-10T06:32:54.333Z,81.50
2017-09-10T06:35:23.812Z,80.14
2017-09-10T06:37:53.264Z,79.20
2017-09-10T06:40:22.758Z,79.14
2017-09-10T06:42:52.277Z,78.94
2017-09-10T06:45:21.752Z,77.51
2017-09-10T06:47:51.189Z,77.89
2017-09-10T06:50:20.684Z,77.76
2017-09-10T06:52:50.192Z,77.20
2017-09-10T06:55:19.679Z,76.59
2017-09-10T06:57:49.141Z,76.34
2017-09-10T07:00:18.621Z,75.48
2017-09-10T07:02:48.063Z,75.62
2017-09-10T07:05:17.360Z,76.40
2017-09-10T07:07:46.801Z,75.16
2017-09-10T07:10:16.289Z,76.23
2017-09-10T07:12:45.725Z,75.87
2017-09-10T07:15:15.262Z,76.61
2017-09-10T07:17:44.717Z,76.70
2017-09-10T07:20:14.041Z,76.59
2017-09-10T07:22:43.484Z,75.74
2017-09-10T07:25:12.969Z,75.93
2017-09-10T07:27:42.401Z,74.78
2017-09-10T07:30:11.885Z,73.58
2017-09-10T07:32:41.350Z,73.12
2017-09-10T07:35:10.862Z,73.79
2017-09-10T07:37:40.297Z,74.03
2017-09-10T07:40:09.774Z,73.49
2017-09-10T07:42:39.029Z,73.68
2017-09-10T07:45:08.539Z,73.78
2017-09-10T07:47:37.968Z,73.79
2017-09-10T07:50:07.496Z,73.67
2017-09-10T07:52:36.929Z,73.47
2017-09-10T07:55:06.239Z,74.33
2017-09-10T07:57:35.681Z,72.89
2017-09-10T08:00:05.195Z,72.64
2017-09-10T08:02:34.438Z,72.55
2017-09-10T08:05:03.912Z,73.41
2017-09-10T08:07:33.380Z,72.92
2017-09-10T08:10:02.874Z,72.62
2017-09-10T08:12:32.300Z,72.55
2017-09-10T08:15:01.873Z,72.40
2017-09-10T08:17:31.301Z,71.07
2017-09-10T08:20:00.552Z,70.26
2017-09-10T08:22:30.009Z,68.96
2017-09-10T08:24:59.487Z,67.17
2017-09-10T08:27:28.921Z,66.62
2017-09-10T08:29:58.390Z,66.79
2017-09-10T08:32:27.879Z,66.48
2017-09-10T08:34:57.173Z,67.63
2017-09-10T08:37:26.421Z,68.61
2017-09-10T08:39:55.782Z,69.47
2017-09-10T08:42:25.284Z,70.00
2017-09-10T08:44:54.789Z,69.09
2017-09-10T08:47:24.237Z,68.33
2017-09-10T08:49:53.666Z,68.27
2017-09-10T08:52:23.126Z,68.81
2017-09-10T08:54:53.430Z,67.88
2017-09-10T08:57:22.867Z,68.05
2017-09-10T08:59:52.337Z,66.90
2017-09-10T09:02:21.781Z,66.60
2017-09-10T09:04:51.231Z,67.06
2017-09-10T09:07:20.675Z,66.67
2017-09-10T09:09:50.128Z,66.23
2017-09-10T09:12:19.592Z,64.75
2017-09-10T09:14:49.041Z,65.30
2017-09-10T09:17:18.644Z,65.16
2017-09-10T09:19:48.079Z,65.50
2017-09-10T09:22:17.526Z,65.87
2017-09-10T09:24:46.998Z,65.36
2017-09-10T09:27:16.464Z,64.54
2017-09-10T09:29:45.913Z,66.06
2017-09-10T09:32:15.352Z,65.07
2017-09-10T09:34:44.780Z,65.76
2017-09-10T09:37:14.057Z,67.01
2017-09-10T09:39:43.507Z,67.55
2017-09-10T09:42:12.946Z,67.47
2017-09-10T09:44:42.425Z,66.81
2017-09-10T09:47:11.960Z,66.46
2017-09-10T09:49:41.410Z,66.99
2017-09-10T09:52:10.681Z,66.91
2017-09-10T09:54:40.204Z,65.32
2017-09-10T09:57:09.762Z,65.66
2017-09-10T09:59:39.198Z,66.78
2017-09-10T10:02:08.652Z,67.00
2017-09-10T10:04:38.126Z,66.69
2017-09-10T10:07:07.628Z,65.71
2017-09-10T10:09:37.097Z,66.32
2017-09-10T10:12:06.581Z,65.65
2017-09-10T10:14:35.848Z,66.44
2017-09-10T10:17:05.294Z,65.90
2017-09-10T10:19:34.720Z,66.19
2017-09-10T10:22:03.976Z,65.43
2017-09-10T10:24:33.341Z,64.89
2017-09-10T10:27:02.822Z,65.21
2017-09-10T10:29:32.272Z,64.64
2017-09-10T10:32:01.714Z,63.61
2017-09-10T10:34:31.186Z,62.50
2017-09-10T10:37:00.640Z,61.47
2017-09-10T10:39:30.080Z,61.86
2017-09-10T10:41:59.681Z,62.21
2017-09-10T10:44:29.117Z,60.74
2017-09-10T10:46:58.561Z,60.87
2017-09-10T10:49:28.000Z,61.28
2017-09-10T10:51:57.433Z,60.71
2017-09-10T10:54:26.891Z,60.05
2017-09-10T10:56:56.434Z,59.65
2017-09-10T10:59:25.877Z,62.63
2017-09-10T11:01:55.337Z,63.25
2017-09-10T11:04:24.769Z,64.32
2017-09-10T11:06:54.233Z,65.01
2017-09-10T11:09:23.716Z,66.41
2017-09-10T11:11:53.166Z,66.58
2017-09-10T11:14:22.625Z,65.72
2017-09-10T11:16:52.084Z,65.31
2017-09-10T11:19:21.525Z,65.82
2017-09-10T11:21:51.349Z,65.44
2017-09-10T11:24:21.561Z,65.87
2017-09-10T11:26:51.014Z,63.77
2017-09-10T11:29:20.454Z,64.04
2017-09-10T11:31:49.897Z,66.06
2017-09-10T11:34:19.416Z,65.58
2017-09-10T11:36:48.848Z,65.54
2017-09-10T11:39:18.287Z,65.20
2017-09-10T11:41:47.821Z,64.95
2017-09-10T11:44:17.278Z,65.68
2017-09-10T11:46:46.550Z,65.80
2017-09-10T11:49:15.988Z,65.13
2017-09-10T11:51:45.428Z,64.12
2017-09-10T11:54:14.909Z,63.68
2017-09-10T11:56:44.364Z,64.67
2017-09-10T11:59:13.679Z,64.44
2017-09-10T12:01:43.111Z,64.19
2017-09-10T12:04:12.380Z,63.97
2017-09-10T12:06:41.635Z,63.47
2017-09-10T12:09:11.086Z,63.22
2017-09-10T12:11:40.535Z,62.75
2017-09-10T12:14:09.979Z,63.46
2017-09-10T12:16:39.425Z,63.86
2017-09-10T12:19:08.870Z,63.30
2017-09-10T12:21:38.309Z,62.55
2017-09-10T12:24:07.753Z,61.51
2017-09-10T12:26:37.201Z,62.12
2017-09-10T12:29:06.638Z,61.21
2017-09-10T12:31:36.099Z,62.15
2017-09-10T12:34:05.535Z,61.50
2017-09-10T12:36:34.989Z,60.65
2017-09-10T12:39:03.685Z,61.07
2017-09-10T12:41:33.348Z,61.19
2017-09-10T12:44:02.782Z,60.95
2017-09-10T12:46:32.226Z,60.50
2017-09-10T12:49:01.673Z,60.01
2017-09-10T12:51:31.116Z,59.85
2017-09-10T12:54:00.560Z,59.93
2017-09-10T12:56:30.000Z,59.89
2017-09-10T12:58:59.456Z,59.84
2017-09-10T13:01:28.904Z,59.25
2017-09-10T13:03:58.351Z,58.47
2017-09-10T13:06:27.829Z,59.12
2017-09-10T13:08:57.261Z,59.54
2017-09-10T13:11:26.740Z,59.83
2017-09-10T13:13:56.185Z,60.69
2017-09-10T13:16:25.679Z,61.36
2017-09-10T13:18:55.132Z,60.00
2017-09-10T13:21:24.573Z,60.08
2017-09-10T13:23:54.035Z,59.95
2017-09-10T13:26:23.465Z,60.39
2017-09-10T13:28:52.909Z,62.03
2017-09-10T13:31:22.382Z,61.68
2017-09-10T13:33:51.845Z,61.36
2017-09-10T13:36:21.276Z,62.00
2017-09-10T13:38:50.752Z,62.88
2017-09-10T13:41:20.013Z,63.01
2017-09-10T13:43:49.270Z,64.78
2017-09-10T13:46:18.733Z,64.24
2017-09-10T13:48:48.194Z,63.54
2017-09-10T13:51:17.654Z,64.39
2017-09-10T13:53:46.919Z,64.65
2017-09-10T13:56:16.461Z,65.21
2017-09-10T13:58:45.900Z,65.16
2017-09-10T14:01:15.352Z,65.94
2017-09-10T14:03:44.815Z,65.87
2017-09-10T14:06:14.248Z,65.83
2017-09-10T14:08:43.509Z,65.85
2017-09-10T14:11:13.069Z,66.43
2017-09-10T14:13:42.508Z,66.90
2017-09-10T14:16:11.965Z,66.75
2017-09-10T14:18:41.449Z,67.02
2017-09-10T14:21:10.878Z,67.49
2017-09-10T14:23:40.315Z,67.53
2017-09-10T14:26:09.764Z,66.92
2017-09-10T14:28:39.388Z,66.39
2017-09-10T14:31:08.849Z,67.18
2017-09-10T14:33:38.110Z,67.05
2017-09-10T14:36:07.571Z,66.91
2017-09-10T14:38:36.826Z,66.61
2017-09-10T14:41:06.110Z,66.71
2017-09-10T14:43:35.541Z,67.15
2017-09-10T14:46:05.000Z,66.89
2017-09-10T14:48:34.449Z,66.75
2017-09-10T14:51:03.916Z,66.72
2017-09-10T14:53:33.395Z,66.90
2017-09-10T14:56:02.855Z,67.16
2017-09-10T14:58:32.350Z,68.00
2017-09-10T15:01:01.643Z,69.58
2017-09-10T15:03:32.066Z,70.05
2017-09-10T15:06:01.492Z,70.46
2017-09-10T15:08:31.120Z,70.86
2017-09-10T15:11:00.554Z,71.08
2017-09-10T15:13:30.010Z,71.05
2017-09-10T15:15:59.449Z,71.22
2017-09-10T15:18:28.892Z,71.54
2017-09-10T15:20:58.336Z,71.75
2017-09-10T15:23:27.777Z,72.26
2017-09-10T15:25:57.513Z,72.61
2017-09-10T15:28:26.970Z,73.60
2017-09-10T15:30:56.295Z,73.16
2017-09-10T15:33:25.795Z,73.82
2017-09-10T15:35:55.236Z,74.09
2017-09-10T15:38:24.725Z,74.99
2017-09-10T15:40:53.968Z,75.19
2017-09-10T15:43:23.428Z,75.92
2017-09-10T15:45:52.676Z,76.47
2017-09-10T15:48:21.976Z,77.34
2017-09-10T15:50:51.540Z,77.80
2017-09-10T15:53:20.985Z,78.14
2017-09-10T15:55:50.440Z,78.33
2017-09-10T15:58:19.901Z,79.06
2017-09-10T16:00:49.217Z,80.05
2017-09-10T16:03:18.671Z,81.14
2017-09-10T16:05:48.139Z,81.86
2017-09-10T16:08:17.573Z,82.35
2017-09-10T16:10:47.014Z,83.12
2017-09-10T16:13:16.465Z,82.66
2017-09-10T16:15:45.907Z,82.82
2017-09-10T16:18:15.423Z,82.90
2017-09-10T16:20:44.868Z,83.01
2017-09-10T16:23:14.349Z,83.75
2017-09-10T16:25:43.833Z,83.96
2017-09-10T16:28:13.281Z,84.56
2017-09-10T16:30:42.739Z,85.44
2017-09-10T16:33:12.013Z,85.78
2017-09-10T16:35:41.463Z,86.28
2017-09-10T16:38:10.913Z,86.17
2017-09-10T16:40:40.356Z,85.91
2017-09-10T16:43:09.797Z,85.69
2017-09-10T16:45:39.260Z,85.55
2017-09-10T16:48:08.699Z,85.78
2017-09-10T16:50:38.159Z,85.77
2017-09-10T16:53:07.451Z,86.28
2017-09-10T16:55:36.889Z,86.79
2017-09-10T16:58:06.352Z,86.97
2017-09-10T17:00:35.810Z,87.11
2017-09-10T17:03:05.293Z,87.12
2017-09-10T17:05:34.733Z,87.24
2017-09-10T17:08:04.234Z,87.34
2017-09-10T17:10:33.678Z,87.40
2017-09-10T17:13:03.122Z,87.70
2017-09-10T17:15:32.574Z,88.10
2017-09-10T17:18:01.997Z,87.68
2017-09-10T17:20:31.441Z,86.92
2017-09-10T17:23:00.695Z,87.16
2017-09-10T17:25:30.157Z,87.46
2017-09-10T17:27:59.619Z,87.56
2017-09-10T17:30:29.160Z,87.76
2017-09-10T17:32:58.407Z,88.23
2017-09-10T17:35:27.873Z,88.75
2017-09-10T17:37:57.330Z,89.02
2017-09-10T17:40:26.768Z,89.29
2017-09-10T17:42:56.228Z,89.21
2017-09-10T17:45:25.656Z,88.84
2017-09-10T17:47:54.930Z,88.89
2017-09-10T17:50:24.429Z,89.11
2017-09-10T17:52:53.687Z,89.35
2017-09-10T17:55:22.905Z,89.74
2017-09-10T17:57:52.375Z,90.16
2017-09-10T18:00:21.696Z,90.61
2017-09-10T18:02:51.003Z,90.75
2017-09-10T18:05:20.490Z,90.77
2017-09-10T18:07:49.996Z,90.93
2017-09-10T18:10:19.484Z,90.84
2017-09-10T18:12:48.913Z,90.71
2017-09-10T18:15:18.409Z,90.80
2017-09-10T18:17:47.910Z,90.87
2017-09-10T18:20:17.283Z,90.97
2017-09-10T18:22:46.734Z,91.15
2017-09-10T18:25:16.233Z,91.32
2017-09-10T18:27:45.710Z,91.45
2017-09-10T18:30:15.214Z,91.56
2017-09-10T18:32:44.676Z,91.50
2017-09-10T18:35:14.146Z,91.57
2017-09-10T18:37:43.677Z,91.45
2017-09-10T18:40:13.150Z,91.50
2017-09-10T18:42:42.607Z,91.46
2017-09-10T18:45:12.095Z,91.43
2017-09-10T18:47:41.364Z,91.51
2017-09-10T18:50:10.699Z,91.40
2017-09-10T18:52:40.002Z,91.55
2017-09-10T18:55:09.523Z,91.73
2017-09-10T18:57:38.787Z,91.67
2017-09-10T19:00:08.296Z,91.62
2017-09-10T19:02:37.750Z,91.54
2017-09-10T19:05:07.090Z,91.58
2017-09-10T19:07:36.542Z,91.74
2017-09-10T19:10:06.147Z,91.87
2017-09-10T19:12:35.616Z,92.12
2017-09-10T19:15:05.142Z,92.30
2017-09-10T19:17:34.597Z,92.27
2017-09-10T19:20:04.190Z,92.35
2017-09-10T19:22:33.645Z,92.52
2017-09-10T19:25:03.133Z,92.59
2017-09-10T19:27:32.575Z,92.59
2017-09-10T19:30:02.198Z,92.62
2017-09-10T19:32:31.620Z,92.45
2017-09-10T19:35:01.140Z,92.19
2017-09-10T19:37:30.636Z,92.11
2017-09-10T19:40:00.109Z,92.08
2017-09-10T19:42:29.576Z,92.18
2017-09-10T19:44:59.053Z,92.28
2017-09-10T19:47:28.339Z,92.35
2017-09-10T19:49:57.592Z,92.31
2017-09-10T19:52:27.291Z,92.35
2017-09-10T19:54:57.622Z,92.38
2017-09-10T19:57:27.068Z,92.17
2017-09-10T19:59:56.628Z,92.12
2017-09-10T20:02:26.086Z,92.13
2017-09-10T20:04:55.538Z,92.11
2017-09-10T20:07:25.161Z,91.87
2017-09-10T20:09:54.601Z,91.75
2017-09-10T20:12:23.861Z,91.64
2017-09-10T20:14:53.177Z,91.92
2017-09-10T20:17:22.456Z,92.08
2017-09-10T20:19:51.704Z,92.36
2017-09-10T20:22:20.966Z,92.56
2017-09-10T20:24:50.221Z,92.51
2017-09-10T20:27:19.670Z,92.41
2017-09-10T20:29:49.129Z,92.38
2017-09-10T20:32:18.573Z,92.16
2017-09-10T20:34:48.015Z,92.18
2017-09-10T20:37:17.458Z,92.27
2017-09-10T20:39:46.944Z,92.21
2017-09-10T20:42:16.388Z,92.09
2017-09-10T20:44:45.652Z,92.03
2017-09-10T20:47:14.934Z,92.16
2017-09-10T20:49:44.381Z,92.10
2017-09-10T20:52:13.724Z,92.19
2017-09-10T20:54:43.157Z,92.27
2017-09-10T20:57:12.620Z,92.38
2017-09-10T20:59:42.081Z,92.55
2017-09-10T21:02:11.533Z,92.66
2017-09-10T21:04:40.976Z,92.67
2017-09-10T21:07:10.469Z,92.69
2017-09-10T21:09:39.904Z,92.70
2017-09-10T21:12:09.386Z,92.73
2017-09-10T21:14:38.881Z,92.69
2017-09-10T21:17:08.310Z,92.77
2017-09-10T21:19:37.761Z,92.89
2017-09-10T21:22:07.205Z,93.16
2017-09-10T21:24:36.657Z,93.24
2017-09-10T21:27:06.116Z,93.07
2017-09-10T21:29:35.400Z,92.95
2017-09-10T21:32:04.836Z,92.95
2017-09-10T21:34:34.302Z,92.91
2017-09-10T21:37:03.751Z,92.83
2017-09-10T21:39:33.280Z,92.71
2017-09-10T21:42:02.738Z,92.66
2017-09-10T21:44:32.181Z,92.60
2017-09-10T21:47:01.628Z,92.42
2017-09-10T21:49:30.945Z,92.29
2017-09-10T21:52:00.416Z,92.13
2017-09-10T21:54:29.871Z,91.86
2017-09-10T21:56:59.334Z,91.42
2017-09-10T21:59:28.773Z,91.42
2017-09-10T22:01:58.252Z,91.01
2017-09-10T22:04:27.774Z,90.94
2017-09-10T22:06:57.341Z,91.02
2017-09-10T22:09:27.621Z,90.89
2017-09-10T22:11:57.101Z,91.02
2017-09-10T22:14:26.589Z,91.07
2017-09-10T22:16:56.033Z,91.17
2017-09-10T22:19:25.472Z,91.36
2017-09-10T22:21:55.216Z,91.81
2017-09-10T22:24:24.728Z,92.12
2017-09-10T22:26:54.280Z,92.34
2017-09-10T22:29:55.733Z,92.41
2017-09-10T22:32:25.277Z,92.56
2017-09-10T22:34:54.736Z,92.60
2017-09-10T22:37:24.169Z,92.77
2017-09-10T22:39:53.692Z,92.85
2017-09-10T22:42:22.936Z,93.05
2017-09-10T22:44:52.397Z,93.13
2017-09-10T22:47:21.852Z,93.09
2017-09-10T22:49:51.122Z,93.17
2017-09-10T22:52:20.581Z,93.38
2017-09-10T22:54:50.760Z,93.39
2017-09-10T22:57:20.533Z,93.37
2017-09-10T22:59:50.048Z,93.39
2017-09-10T23:02:19.860Z,93.43
2017-09-10T23:04:49.821Z,93.56
2017-09-10T23:07:19.284Z,93.59
2017-09-10T23:09:48.729Z,93.65
2017-09-10T23:12:18.200Z,93.69
2017-09-10T23:14:47.663Z,93.95
2017-09-10T23:17:17.388Z,94.12
2017-09-10T23:19:46.842Z,94.17
2017-09-10T23:22:17.478Z,93.95
2017-09-10T23:24:47.052Z,93.81
2017-09-10T23:27:16.790Z,93.50
2017-09-10T23:29:46.452Z,93.22
2017-09-10T23:32:16.241Z,93.24
2017-09-10T23:34:45.799Z,93.33
2017-09-10T23:37:15.254Z,92.99
2017-09-10T23:39:45.004Z,92.95
2017-09-10T23:42:14.997Z,92.96
2017-09-10T23:44:44.808Z,93.05
2017-09-10T23:47:14.534Z,93.23
2017-09-10T23:49:43.977Z,93.20
2017-09-10T23:52:19.128Z,93.20
2017-09-10T23:54:49.521Z,93.34
2017-09-10T23:57:19.329Z,93.51
2017-09-10T23:59:48.785Z,93.38
